createdAt,value
2017-06-29T00:00:10.796Z,21.21
2017-06-29T00:00:51.377Z,21.09
2017-06-29T00:01:31.968Z,21.11
2017-06-29T00:02:12.548Z,21.15
2017-06-29T00:02:53.165Z,21.03
2017-06-29T00:03:33.793Z,21.12
2017-06-29T00:04:14.371Z,21.15
2017-06-29T00:04:55.018Z,21.07
2017-06-29T00:05:35.611Z,21.21
2017-06-29T00:06:16.190Z,21.14
2017-06-29T00:06:56.772Z,21.12
2017-06-29T00:07:37.388Z,21.14
2017-06-29T00:08:17.955Z,21.15
2017-06-29T00:08:58.524Z,21.07
2017-06-29T00:09:39.107Z,21.14
2017-06-29T00:10:19.688Z,21.07
2017-06-29T00:11:00.267Z,21.07
2017-06-29T00:11:40.830Z,21.17
2017-06-29T00:12:21.398Z,21.14
2017-06-29T00:13:01.993Z,21.15
2017-06-29T00:13:42.581Z,21.14
2017-06-29T00:14:23.159Z,21.12
2017-06-29T00:15:03.747Z,21.05
2017-06-29T00:15:44.338Z,21.12
2017-06-29T00:16:24.910Z,21.09
2017-06-29T00:17:05.487Z,21.09
2017-06-29T00:17:46.084Z,21.15
2017-06-29T00:18:26.667Z,21.17
2017-06-29T00:19:07.264Z,21.15
2017-06-29T00:19:47.828Z,21.14
2017-06-29T00:20:28.393Z,21.2
2017-06-29T00:21:08.980Z,21.12
2017-06-29T00:21:49.550Z,21.12
2017-06-29T00:22:30.116Z,21.09
2017-06-29T00:23:10.697Z,21.18
2017-06-29T00:23:51.276Z,21.15
2017-06-29T00:24:31.862Z,21.12
2017-06-29T00:25:12.454Z,21.2
2017-06-29T00:25:53.056Z,21.22
2017-06-29T00:26:33.661Z,21.07
2017-06-29T00:27:14.238Z,21.15
2017-06-29T00:27:54.841Z,21.15
2017-06-29T00:28:35.435Z,21.12
2017-06-29T00:29:16.020Z,21.11
2017-06-29T00:29:56.588Z,21.21
2017-06-29T00:30:37.167Z,21.09
2017-06-29T00:31:17.758Z,21.07
2017-06-29T00:31:58.368Z,21.02
2017-06-29T00:32:38.966Z,21.05
2017-06-29T00:33:19.529Z,21.06
2017-06-29T00:34:00.129Z,21.07
2017-06-29T00:34:40.705Z,21.14
2017-06-29T00:35:21.308Z,21.12
2017-06-29T00:36:01.878Z,21.11
2017-06-29T00:36:42.451Z,21.09
2017-06-29T00:37:23.040Z,21.09
2017-06-29T00:38:03.650Z,21.09
2017-06-29T00:38:44.238Z,21.09
2017-06-29T00:39:24.826Z,21.02
2017-06-29T00:40:05.405Z,21.06
2017-06-29T00:40:45.989Z,21.15
2017-06-29T00:41:26.586Z,21.05
2017-06-29T00:42:07.183Z,21.07
2017-06-29T00:42:47.789Z,21.05
2017-06-29T00:43:28.370Z,21
2017-06-29T00:44:08.967Z,21.05
2017-06-29T00:44:49.535Z,21
2017-06-29T00:45:30.122Z,21.03
2017-06-29T00:46:10.711Z,21.06
2017-06-29T00:46:51.317Z,21.02
2017-06-29T00:47:31.884Z,21.07
2017-06-29T00:48:12.464Z,21.02
2017-06-29T00:48:53.066Z,21.06
2017-06-29T00:49:33.636Z,20.97
2017-06-29T00:50:14.227Z,21.09
2017-06-29T00:50:54.838Z,21.03
2017-06-29T00:51:35.430Z,20.92
2017-06-29T00:52:16.038Z,20.92
2017-06-29T00:52:56.646Z,20.96
2017-06-29T00:53:37.209Z,20.95
2017-06-29T00:54:17.802Z,21
2017-06-29T00:54:58.375Z,20.92
2017-06-29T00:55:38.938Z,21
2017-06-29T00:56:19.525Z,20.93
2017-06-29T00:57:00.106Z,20.97
2017-06-29T00:57:40.690Z,20.97
2017-06-29T00:58:21.250Z,20.99
2017-06-29T00:59:01.832Z,20.97
2017-06-29T00:59:42.408Z,21.02
2017-06-29T01:00:22.980Z,20.92
2017-06-29T01:01:03.552Z,21.02
2017-06-29T01:01:44.120Z,21.03
2017-06-29T01:02:24.727Z,21.07
2017-06-29T01:03:05.304Z,21.05
2017-06-29T01:03:45.864Z,21
2017-06-29T01:04:26.446Z,20.96
2017-06-29T01:05:07.025Z,21.05
2017-06-29T01:05:47.589Z,21.03
2017-06-29T01:06:28.172Z,21.03
2017-06-29T01:07:08.746Z,21.02
2017-06-29T01:07:49.336Z,20.97
2017-06-29T01:08:29.909Z,20.96
2017-06-29T01:09:10.496Z,20.93
2017-06-29T01:09:51.059Z,20.95
2017-06-29T01:10:31.665Z,20.87
2017-06-29T01:11:12.233Z,20.96
2017-06-29T01:11:52.812Z,20.97
2017-06-29T01:12:33.422Z,20.87
2017-06-29T01:13:14.017Z,20.87
2017-06-29T01:13:54.616Z,20.96
2017-06-29T01:14:35.193Z,20.85
2017-06-29T01:15:15.794Z,20.88
2017-06-29T01:15:56.388Z,20.88
2017-06-29T01:16:36.961Z,21
2017-06-29T01:17:17.546Z,20.88
2017-06-29T01:17:58.116Z,20.85
2017-06-29T01:18:38.707Z,20.97
2017-06-29T01:19:19.327Z,20.88
2017-06-29T01:19:59.888Z,20.84
2017-06-29T01:20:40.530Z,20.99
2017-06-29T01:21:21.125Z,20.95
2017-06-29T01:22:01.712Z,20.93
2017-06-29T01:22:42.292Z,20.97
2017-06-29T01:23:22.880Z,20.87
2017-06-29T01:24:03.491Z,20.88
2017-06-29T01:24:44.071Z,20.9
2017-06-29T01:25:24.695Z,20.93
2017-06-29T01:26:05.267Z,20.92
2017-06-29T01:26:45.857Z,20.9
2017-06-29T01:27:26.461Z,20.92
2017-06-29T01:28:07.041Z,20.88
2017-06-29T01:28:47.657Z,20.85
2017-06-29T01:29:28.250Z,20.88
2017-06-29T01:30:08.862Z,20.92
2017-06-29T01:30:49.523Z,20.85
2017-06-29T01:31:30.087Z,20.9
2017-06-29T01:32:10.700Z,20.87
2017-06-29T01:32:51.272Z,20.84
2017-06-29T01:33:31.844Z,20.9
2017-06-29T01:34:12.406Z,20.93
2017-06-29T01:34:52.977Z,20.88
2017-06-29T01:35:33.552Z,20.95
2017-06-29T01:36:14.132Z,20.92
2017-06-29T01:36:54.730Z,20.95
2017-06-29T01:37:35.310Z,20.88
2017-06-29T01:38:15.872Z,20.93
2017-06-29T01:38:56.461Z,20.95
2017-06-29T01:39:37.029Z,20.92
2017-06-29T01:40:17.629Z,20.92
2017-06-29T01:40:58.206Z,20.93
2017-06-29T01:41:38.789Z,20.84
2017-06-29T01:42:19.387Z,20.85
2017-06-29T01:42:59.966Z,20.85
2017-06-29T01:43:40.544Z,20.85
2017-06-29T01:44:21.166Z,20.88
2017-06-29T01:45:01.739Z,20.81
2017-06-29T01:45:42.300Z,20.81
2017-06-29T01:46:22.879Z,20.82
2017-06-29T01:47:03.462Z,20.85
2017-06-29T01:47:44.034Z,20.92
2017-06-29T01:48:24.628Z,20.82
2017-06-29T01:49:05.244Z,20.81
2017-06-29T01:49:45.812Z,20.84
2017-06-29T01:50:26.387Z,20.8
2017-06-29T01:51:06.949Z,20.8
2017-06-29T01:51:47.535Z,20.81
2017-06-29T01:52:28.114Z,20.82
2017-06-29T01:53:08.705Z,20.84
2017-06-29T01:53:49.261Z,20.84
2017-06-29T01:54:29.834Z,20.84
2017-06-29T01:55:10.424Z,20.81
2017-06-29T01:55:51.031Z,20.82
2017-06-29T01:56:31.617Z,20.77
2017-06-29T01:57:12.191Z,20.72
2017-06-29T01:57:52.803Z,20.72
2017-06-29T01:58:33.370Z,20.8
2017-06-29T01:59:13.957Z,20.74
2017-06-29T01:59:54.557Z,20.69
2017-06-29T02:00:35.137Z,20.67
2017-06-29T02:01:15.706Z,20.65
2017-06-29T02:01:56.291Z,20.65
2017-06-29T02:02:36.870Z,20.7
2017-06-29T02:03:17.454Z,20.66
2017-06-29T02:03:58.074Z,20.63
2017-06-29T02:04:38.657Z,20.59
2017-06-29T02:05:19.248Z,20.62
2017-06-29T02:05:59.874Z,20.6
2017-06-29T02:06:40.474Z,20.58
2017-06-29T02:07:21.069Z,20.63
2017-06-29T02:08:01.677Z,20.5
2017-06-29T02:08:42.259Z,20.59
2017-06-29T02:09:22.834Z,20.56
2017-06-29T02:10:03.423Z,20.58
2017-06-29T02:10:43.992Z,20.56
2017-06-29T02:11:24.571Z,20.58
2017-06-29T02:12:05.139Z,20.56
2017-06-29T02:12:45.764Z,20.63
2017-06-29T02:13:26.335Z,20.52
2017-06-29T02:14:06.913Z,20.55
2017-06-29T02:14:47.506Z,20.48
2017-06-29T02:15:28.170Z,20.51
2017-06-29T02:16:08.770Z,20.51
2017-06-29T02:16:49.349Z,20.41
2017-06-29T02:17:29.919Z,20.41
2017-06-29T02:18:10.486Z,20.44
2017-06-29T02:18:51.066Z,20.39
2017-06-29T02:19:31.674Z,20.43
2017-06-29T02:20:12.263Z,20.44
2017-06-29T02:20:52.912Z,20.44
2017-06-29T02:21:33.490Z,20.41
2017-06-29T02:22:14.102Z,20.48
2017-06-29T02:22:54.673Z,20.41
2017-06-29T02:23:35.326Z,20.41
2017-06-29T02:24:15.977Z,20.41
2017-06-29T02:24:56.545Z,20.41
2017-06-29T02:25:37.116Z,20.4
2017-06-29T02:26:17.697Z,20.43
2017-06-29T02:26:58.283Z,20.43
2017-06-29T02:27:38.854Z,20.44
2017-06-29T02:28:19.470Z,20.37
2017-06-29T02:29:00.045Z,20.43
2017-06-29T02:29:40.630Z,20.48
2017-06-29T02:30:21.201Z,20.41
2017-06-29T02:31:01.771Z,20.48
2017-06-29T02:31:42.351Z,20.47
2017-06-29T02:32:22.937Z,20.34
2017-06-29T02:33:03.525Z,20.37
2017-06-29T02:33:44.114Z,20.52
2017-06-29T02:34:24.736Z,20.39
2017-06-29T02:35:05.311Z,20.43
2017-06-29T02:35:45.914Z,20.4
2017-06-29T02:36:26.483Z,20.36
2017-06-29T02:37:07.059Z,20.37
2017-06-29T02:37:47.660Z,20.34
2017-06-29T02:38:28.225Z,20.41
2017-06-29T02:39:08.788Z,20.4
2017-06-29T02:39:49.365Z,20.28
2017-06-29T02:40:29.964Z,20.28
2017-06-29T02:41:10.524Z,20.41
2017-06-29T02:41:51.120Z,20.31
2017-06-29T02:42:31.705Z,20.31
2017-06-29T02:43:12.311Z,20.31
2017-06-29T02:43:52.862Z,20.29
2017-06-29T02:44:33.451Z,20.29
2017-06-29T02:45:14.092Z,20.34
2017-06-29T02:45:54.694Z,20.31
2017-06-29T02:46:35.310Z,20.28
2017-06-29T02:47:15.894Z,20.22
2017-06-29T02:47:56.472Z,20.25
2017-06-29T02:48:37.055Z,20.32
2017-06-29T02:49:17.673Z,20.19
2017-06-29T02:49:58.248Z,20.32
2017-06-29T02:50:38.831Z,20.25
2017-06-29T02:51:19.387Z,20.22
2017-06-29T02:51:59.954Z,20.26
2017-06-29T02:52:40.533Z,20.19
2017-06-29T02:53:21.129Z,20.32
2017-06-29T02:54:01.735Z,20.37
2017-06-29T02:54:42.293Z,20.28
2017-06-29T02:55:22.880Z,20.31
2017-06-29T02:56:03.439Z,20.34
2017-06-29T02:56:44.017Z,20.28
2017-06-29T02:57:24.591Z,20.29
2017-06-29T02:58:05.169Z,20.28
2017-06-29T02:58:45.778Z,20.37
2017-06-29T02:59:26.373Z,20.41
2017-06-29T03:00:06.959Z,20.36
2017-06-29T03:00:47.525Z,20.44
2017-06-29T03:01:28.091Z,20.41
2017-06-29T03:02:08.664Z,20.4
2017-06-29T03:02:49.230Z,20.31
2017-06-29T03:03:29.811Z,20.32
2017-06-29T03:04:10.374Z,20.37
2017-06-29T03:04:50.953Z,20.28
2017-06-29T03:05:31.539Z,20.28
2017-06-29T03:06:12.109Z,20.26
2017-06-29T03:06:52.696Z,20.26
2017-06-29T03:07:33.275Z,20.26
2017-06-29T03:08:13.875Z,20.29
2017-06-29T03:08:54.454Z,20.36
2017-06-29T03:09:35.027Z,20.22
2017-06-29T03:10:15.625Z,20.19
2017-06-29T03:10:56.199Z,20.31
2017-06-29T03:11:36.801Z,20.19
2017-06-29T03:12:17.405Z,20.28
2017-06-29T03:12:58.003Z,20.18
2017-06-29T03:13:38.583Z,20.21
2017-06-29T03:14:19.164Z,20.22
2017-06-29T03:14:59.745Z,20.14
2017-06-29T03:15:40.375Z,20.21
2017-06-29T03:16:20.936Z,20.19
2017-06-29T03:17:01.509Z,20.19
2017-06-29T03:17:42.103Z,20.16
2017-06-29T03:18:22.673Z,20.19
2017-06-29T03:19:03.988Z,20.29
2017-06-29T03:19:43.865Z,20.16
2017-06-29T03:20:24.453Z,20.21
2017-06-29T03:21:05.020Z,20.21
2017-06-29T03:21:45.612Z,20.22
2017-06-29T03:22:26.187Z,20.24
2017-06-29T03:23:06.762Z,20.24
2017-06-29T03:23:47.349Z,20.18
2017-06-29T03:24:27.922Z,20.22
2017-06-29T03:25:08.495Z,20.22
2017-06-29T03:25:49.099Z,20.29
2017-06-29T03:26:29.676Z,20.29
2017-06-29T03:27:10.242Z,20.37
2017-06-29T03:27:50.880Z,20.29
2017-06-29T03:28:31.466Z,20.29
2017-06-29T03:29:12.056Z,20.28
2017-06-29T03:29:52.632Z,20.26
2017-06-29T03:30:33.200Z,20.31
2017-06-29T03:31:13.784Z,20.36
2017-06-29T03:31:54.357Z,20.31
2017-06-29T03:32:34.935Z,20.32
2017-06-29T03:33:15.531Z,20.29
2017-06-29T03:33:56.127Z,20.31
2017-06-29T03:34:36.767Z,20.28
2017-06-29T03:35:17.358Z,20.4
2017-06-29T03:35:57.936Z,20.29
2017-06-29T03:36:38.516Z,20.4
2017-06-29T03:37:19.081Z,20.4
2017-06-29T03:37:59.652Z,20.36
2017-06-29T03:38:40.213Z,20.37
2017-06-29T03:39:20.832Z,20.37
2017-06-29T03:40:01.419Z,20.41
2017-06-29T03:40:42.018Z,20.48
2017-06-29T03:41:22.604Z,20.34
2017-06-29T03:42:03.193Z,20.4
2017-06-29T03:42:43.781Z,20.47
2017-06-29T03:43:24.356Z,20.41
2017-06-29T03:44:04.965Z,20.51
2017-06-29T03:44:45.568Z,20.52
2017-06-29T03:45:26.153Z,20.43
2017-06-29T03:46:06.754Z,20.43
2017-06-29T03:46:47.321Z,20.39
2017-06-29T03:47:27.918Z,20.51
2017-06-29T03:48:08.489Z,20.48
2017-06-29T03:48:49.080Z,20.51
2017-06-29T03:49:29.687Z,20.59
2017-06-29T03:50:10.282Z,20.55
2017-06-29T03:50:50.855Z,20.62
2017-06-29T03:51:31.447Z,20.6
2017-06-29T03:52:12.034Z,20.62
2017-06-29T03:52:52.594Z,20.66
2017-06-29T03:53:33.174Z,20.67
2017-06-29T03:54:13.748Z,20.66
2017-06-29T03:54:54.334Z,20.66
2017-06-29T03:55:34.922Z,20.7
2017-06-29T03:56:15.508Z,20.66
2017-06-29T03:56:56.109Z,20.72
2017-06-29T03:57:36.676Z,20.74
2017-06-29T03:58:17.268Z,20.77
2017-06-29T03:58:57.849Z,20.78
2017-06-29T03:59:38.430Z,20.72
2017-06-29T04:00:18.996Z,20.82
2017-06-29T04:00:59.569Z,20.84
2017-06-29T04:01:40.167Z,20.77
2017-06-29T04:02:20.771Z,20.81
2017-06-29T04:03:01.344Z,20.81
2017-06-29T04:03:41.953Z,20.82
2017-06-29T04:04:22.564Z,20.82
2017-06-29T04:05:03.124Z,20.8
2017-06-29T04:05:43.709Z,20.85
2017-06-29T04:06:24.333Z,20.8
2017-06-29T04:07:04.926Z,20.87
2017-06-29T04:07:45.502Z,20.81
2017-06-29T04:08:26.092Z,20.84
2017-06-29T04:09:06.666Z,20.8
2017-06-29T04:09:47.239Z,20.78
2017-06-29T04:10:27.812Z,20.88
2017-06-29T04:11:08.387Z,20.81
2017-06-29T04:11:48.972Z,20.85
2017-06-29T04:12:29.566Z,20.82
2017-06-29T04:13:10.153Z,20.82
2017-06-29T04:13:50.741Z,20.8
2017-06-29T04:14:31.318Z,20.81
2017-06-29T04:15:11.899Z,20.82
2017-06-29T04:15:52.480Z,20.84
2017-06-29T04:16:33.056Z,20.9
2017-06-29T04:17:13.663Z,20.93
2017-06-29T04:17:54.276Z,20.81
2017-06-29T04:18:34.854Z,20.87
2017-06-29T04:19:15.423Z,20.97
2017-06-29T04:19:56.012Z,20.95
2017-06-29T04:20:36.624Z,20.97
2017-06-29T04:21:17.207Z,20.87
2017-06-29T04:21:57.816Z,20.95
2017-06-29T04:22:38.393Z,21.07
2017-06-29T04:23:18.971Z,21.02
2017-06-29T04:23:59.559Z,21.07
2017-06-29T04:24:40.147Z,21.06
2017-06-29T04:25:20.719Z,21.02
2017-06-29T04:26:01.335Z,21.06
2017-06-29T04:26:41.934Z,21.06
2017-06-29T04:27:22.497Z,20.96
2017-06-29T04:28:03.059Z,21
2017-06-29T04:28:43.656Z,20.96
2017-06-29T04:29:24.256Z,21.02
2017-06-29T04:30:04.848Z,21.02
2017-06-29T04:30:45.423Z,20.95
2017-06-29T04:31:26.031Z,20.87
2017-06-29T04:32:06.604Z,20.97
2017-06-29T04:32:47.191Z,20.95
2017-06-29T04:33:27.777Z,20.93
2017-06-29T04:34:08.352Z,21
2017-06-29T04:34:48.935Z,21.05
2017-06-29T04:35:29.513Z,20.99
2017-06-29T04:36:10.093Z,20.99
2017-06-29T04:36:50.693Z,20.92
2017-06-29T04:37:31.244Z,20.9
2017-06-29T04:38:12.283Z,20.88
2017-06-29T04:38:53.226Z,20.96
2017-06-29T04:39:33.882Z,20.93
2017-06-29T04:40:14.487Z,20.93
2017-06-29T04:40:55.221Z,20.97
2017-06-29T04:41:35.808Z,20.99
2017-06-29T04:42:16.471Z,21.09
2017-06-29T04:42:57.070Z,21.05
2017-06-29T04:43:37.749Z,20.99
2017-06-29T04:44:18.367Z,21.02
2017-06-29T04:44:59.087Z,21.07
2017-06-29T04:45:39.642Z,21.05
2017-06-29T04:46:20.445Z,21
2017-06-29T04:47:01.003Z,21.11
2017-06-29T04:47:41.602Z,20.96
2017-06-29T04:48:22.192Z,21.05
2017-06-29T04:49:02.781Z,20.93
2017-06-29T04:49:43.432Z,21.06
2017-06-29T04:50:24.001Z,21
2017-06-29T04:51:04.573Z,21.07
2017-06-29T04:51:45.158Z,21.06
2017-06-29T04:52:25.743Z,21
2017-06-29T04:53:06.390Z,21.12
2017-06-29T04:53:46.965Z,21.03
2017-06-29T04:54:27.559Z,21.06
2017-06-29T04:55:08.138Z,21.03
2017-06-29T04:55:48.718Z,21.06
2017-06-29T04:56:29.284Z,21
2017-06-29T04:57:09.890Z,21.06
2017-06-29T04:57:50.462Z,21.11
2017-06-29T04:58:31.051Z,21.11
2017-06-29T04:59:11.657Z,21
2017-06-29T04:59:52.259Z,21.03
2017-06-29T05:00:32.869Z,21.06
2017-06-29T05:01:13.445Z,21.03
2017-06-29T05:01:54.040Z,21.11
2017-06-29T05:02:34.600Z,21.07
2017-06-29T05:03:15.186Z,21.17
2017-06-29T05:03:55.763Z,21.07
2017-06-29T05:04:36.347Z,21.15
2017-06-29T05:05:16.943Z,21.17
2017-06-29T05:05:57.515Z,21.06
2017-06-29T05:06:38.124Z,21.06
2017-06-29T05:07:18.690Z,21.06
2017-06-29T05:07:59.277Z,21.15
2017-06-29T05:08:39.891Z,21.15
2017-06-29T05:09:20.505Z,21.17
2017-06-29T05:10:01.107Z,21.09
2017-06-29T05:10:41.729Z,21.03
2017-06-29T05:11:22.309Z,21.17
2017-06-29T05:12:02.885Z,21.06
2017-06-29T05:12:43.483Z,21.07
2017-06-29T05:13:24.101Z,21.22
2017-06-29T05:14:04.680Z,21.07
2017-06-29T05:14:45.289Z,21.09
2017-06-29T05:15:25.856Z,21.15
2017-06-29T05:16:06.445Z,21.2
2017-06-29T05:16:47.023Z,21.15
2017-06-29T05:17:27.602Z,21.22
2017-06-29T05:18:08.197Z,21.27
2017-06-29T05:18:48.757Z,21.18
2017-06-29T05:19:29.347Z,21.22
2017-06-29T05:20:09.916Z,21.17
2017-06-29T05:20:50.496Z,21.21
2017-06-29T05:21:31.057Z,21.17
2017-06-29T05:22:11.626Z,21.2
2017-06-29T05:22:52.202Z,21.17
2017-06-29T05:23:32.775Z,21.18
2017-06-29T05:24:13.364Z,21.27
2017-06-29T05:24:53.945Z,21.11
2017-06-29T05:25:34.539Z,21.14
2017-06-29T05:26:15.108Z,21.25
2017-06-29T05:26:55.689Z,21.15
2017-06-29T05:27:36.245Z,21.09
2017-06-29T05:28:16.821Z,21.14
2017-06-29T05:28:57.393Z,21.14
2017-06-29T05:29:37.963Z,21.03
2017-06-29T05:30:18.546Z,21.18
2017-06-29T05:30:59.132Z,21.06
2017-06-29T05:31:39.697Z,21.12
2017-06-29T05:32:20.281Z,21.09
2017-06-29T05:33:00.871Z,21.09
2017-06-29T05:33:41.497Z,21.15
2017-06-29T05:34:22.095Z,21.15
2017-06-29T05:35:02.664Z,21.12
2017-06-29T05:35:43.279Z,21.17
2017-06-29T05:36:23.874Z,21.15
2017-06-29T05:37:04.449Z,21.2
2017-06-29T05:37:45.012Z,21.21
2017-06-29T05:38:25.605Z,21.12
2017-06-29T05:39:06.174Z,21.17
2017-06-29T05:39:46.757Z,21.21
2017-06-29T05:40:27.335Z,21.24
2017-06-29T05:41:07.914Z,21.24
2017-06-29T05:41:48.483Z,21.32
2017-06-29T05:42:29.057Z,21.22
2017-06-29T05:43:09.617Z,21.3
2017-06-29T05:43:50.214Z,21.3
2017-06-29T05:44:30.902Z,21.24
2017-06-29T05:45:11.479Z,21.33
2017-06-29T05:45:52.100Z,21.3
2017-06-29T05:46:32.704Z,21.25
2017-06-29T05:47:13.341Z,21.35
2017-06-29T05:47:53.951Z,21.25
2017-06-29T05:48:34.655Z,21.25
2017-06-29T05:49:15.227Z,21.21
2017-06-29T05:49:55.815Z,21.22
2017-06-29T05:50:36.424Z,21.18
2017-06-29T05:51:16.949Z,21.2
2017-06-29T05:51:57.557Z,21.2
2017-06-29T05:52:38.121Z,21.17
2017-06-29T05:53:18.673Z,21.2
2017-06-29T05:53:59.248Z,21.21
2017-06-29T05:54:39.814Z,21.15
2017-06-29T05:55:20.393Z,21.12
2017-06-29T05:56:00.974Z,21.14
2017-06-29T05:56:41.573Z,21.09
2017-06-29T05:57:22.152Z,21.11
2017-06-29T05:58:02.760Z,21.12
2017-06-29T05:58:43.355Z,21.12
2017-06-29T05:59:23.939Z,21.09
2017-06-29T06:00:04.549Z,21.17
2017-06-29T06:00:45.117Z,21.12
2017-06-29T06:01:25.723Z,21.18
2017-06-29T06:02:06.299Z,21.15
2017-06-29T06:02:46.901Z,21.21
2017-06-29T06:03:27.496Z,21.11
2017-06-29T06:04:08.060Z,21.12
2017-06-29T06:04:48.667Z,21.07
2017-06-29T06:05:29.249Z,21.07
2017-06-29T06:06:09.951Z,21.2
2017-06-29T06:06:50.519Z,21.14
2017-06-29T06:07:31.103Z,21.2
2017-06-29T06:08:11.709Z,21.15
2017-06-29T06:08:52.287Z,21.07
2017-06-29T06:09:32.862Z,21.06
2017-06-29T06:10:13.444Z,21.15
2017-06-29T06:10:54.071Z,21.12
2017-06-29T06:11:34.673Z,21.14
2017-06-29T06:12:15.263Z,21.17
2017-06-29T06:12:55.845Z,21.11
2017-06-29T06:13:36.486Z,21.17
2017-06-29T06:14:17.126Z,21.14
2017-06-29T06:14:57.704Z,21.09
2017-06-29T06:15:38.289Z,21.14
2017-06-29T06:16:18.891Z,21.06
2017-06-29T06:16:59.491Z,21.06
2017-06-29T06:17:40.117Z,21.15
2017-06-29T06:18:20.785Z,21.07
2017-06-29T06:19:01.357Z,21.11
2017-06-29T06:19:41.943Z,21.12
2017-06-29T06:20:22.554Z,21.15
2017-06-29T06:21:03.133Z,21.15
2017-06-29T06:21:43.724Z,21.24
2017-06-29T06:22:24.322Z,21.22
2017-06-29T06:23:04.931Z,21.32
2017-06-29T06:23:45.535Z,21.21
2017-06-29T06:24:26.121Z,21.33
2017-06-29T06:25:06.786Z,21.37
2017-06-29T06:25:47.386Z,21.32
2017-06-29T06:26:27.972Z,21.33
2017-06-29T06:27:08.562Z,21.4
2017-06-29T06:27:49.161Z,21.4
2017-06-29T06:28:29.743Z,21.3
2017-06-29T06:29:10.332Z,21.32
2017-06-29T06:29:50.945Z,21.39
2017-06-29T06:30:31.527Z,21.39
2017-06-29T06:31:12.135Z,21.35
2017-06-29T06:31:52.717Z,21.42
2017-06-29T06:32:33.285Z,21.35
2017-06-29T06:33:13.852Z,21.46
2017-06-29T06:33:54.456Z,21.51
2017-06-29T06:34:35.030Z,21.48
2017-06-29T06:35:15.655Z,21.4
2017-06-29T06:35:56.242Z,21.48
2017-06-29T06:36:36.830Z,21.48
2017-06-29T06:37:17.417Z,21.52
2017-06-29T06:37:57.970Z,21.45
2017-06-29T06:38:38.574Z,21.45
2017-06-29T06:39:19.197Z,21.5
2017-06-29T06:39:59.768Z,21.43
2017-06-29T06:40:40.368Z,21.46
2017-06-29T06:41:20.940Z,21.52
2017-06-29T06:42:01.556Z,21.55
2017-06-29T06:42:42.143Z,21.51
2017-06-29T06:43:22.731Z,21.61
2017-06-29T06:44:03.428Z,21.57
2017-06-29T06:44:44.010Z,21.55
2017-06-29T06:45:24.595Z,21.61
2017-06-29T06:46:05.196Z,21.61
2017-06-29T06:46:45.821Z,21.62
2017-06-29T06:47:26.452Z,21.64
2017-06-29T06:48:07.058Z,21.66
2017-06-29T06:48:47.637Z,21.67
2017-06-29T06:49:28.212Z,21.66
2017-06-29T06:50:08.786Z,21.72
2017-06-29T06:50:49.373Z,21.67
2017-06-29T06:51:29.952Z,21.72
2017-06-29T06:52:10.557Z,21.61
2017-06-29T06:52:51.155Z,21.69
2017-06-29T06:53:31.736Z,21.64
2017-06-29T06:54:12.317Z,21.73
2017-06-29T06:54:52.908Z,21.69
2017-06-29T06:55:33.482Z,21.62
2017-06-29T06:56:14.085Z,21.7
2017-06-29T06:56:54.677Z,21.61
2017-06-29T06:57:35.256Z,21.67
2017-06-29T06:58:15.839Z,21.64
2017-06-29T06:58:56.441Z,21.67
2017-06-29T06:59:37.034Z,21.64
2017-06-29T07:00:17.599Z,21.6
2017-06-29T07:00:58.195Z,21.66
2017-06-29T07:01:38.771Z,21.83
2017-06-29T07:02:19.357Z,21.8
2017-06-29T07:03:00.034Z,21.8
2017-06-29T07:03:40.609Z,21.8
2017-06-29T07:04:21.208Z,21.77
2017-06-29T07:05:01.798Z,21.79
2017-06-29T07:05:42.577Z,21.82
2017-06-29T07:06:23.158Z,21.82
2017-06-29T07:07:04.074Z,21.69
2017-06-29T07:07:44.822Z,21.76
2017-06-29T07:08:25.758Z,21.88
2017-06-29T07:09:06.356Z,21.79
2017-06-29T07:09:46.944Z,21.73
2017-06-29T07:10:27.723Z,21.75
2017-06-29T07:11:08.277Z,21.83
2017-06-29T07:11:51.530Z,21.77
2017-06-29T07:12:32.124Z,21.93
2017-06-29T07:13:12.821Z,21.95
2017-06-29T07:13:53.493Z,21.93
2017-06-29T07:14:34.088Z,21.95
2017-06-29T07:15:14.904Z,21.89
2017-06-29T07:15:55.515Z,21.95
2017-06-29T07:16:36.122Z,21.89
2017-06-29T07:17:16.713Z,21.88
2017-06-29T07:17:57.303Z,21.95
2017-06-29T07:18:37.874Z,21.88
2017-06-29T07:19:18.448Z,21.95
2017-06-29T07:19:59.048Z,21.96
2017-06-29T07:20:39.639Z,21.95
2017-06-29T07:21:20.261Z,22
2017-06-29T07:22:01.436Z,22
2017-06-29T07:22:43.025Z,22.06
2017-06-29T07:23:23.659Z,22.1
2017-06-29T07:24:04.587Z,22.07
2017-06-29T07:24:45.205Z,22.06
2017-06-29T07:25:25.820Z,22.06
2017-06-29T07:26:06.397Z,22.04
2017-06-29T07:26:47.085Z,21.99
2017-06-29T07:27:27.676Z,22.07
2017-06-29T07:28:08.285Z,22.06
2017-06-29T07:28:48.858Z,22.11
2017-06-29T07:29:29.450Z,22.08
2017-06-29T07:30:10.015Z,22.08
2017-06-29T07:30:50.601Z,22.08
2017-06-29T07:31:31.197Z,22.04
2017-06-29T07:32:11.773Z,22.1
2017-06-29T07:32:52.363Z,22.11
2017-06-29T07:33:33.013Z,22.1
2017-06-29T07:34:13.617Z,22.08
2017-06-29T07:34:54.209Z,22.14
2017-06-29T07:35:34.803Z,22.13
2017-06-29T07:36:15.379Z,22.17
2017-06-29T07:36:56.034Z,22.15
2017-06-29T07:37:36.661Z,22.18
2017-06-29T07:38:17.237Z,22.2
2017-06-29T07:38:57.820Z,22.28
2017-06-29T07:39:38.407Z,22.15
2017-06-29T07:40:18.990Z,22.17
2017-06-29T07:40:59.568Z,22.23
2017-06-29T07:41:40.147Z,22.23
2017-06-29T07:42:20.731Z,22.11
2017-06-29T07:43:01.317Z,22.2
2017-06-29T07:43:41.917Z,22.18
2017-06-29T07:44:22.547Z,22.13
2017-06-29T07:45:03.153Z,22.06
2017-06-29T07:45:43.747Z,22.02
2017-06-29T07:46:24.334Z,21.99
2017-06-29T07:47:04.981Z,22.04
2017-06-29T07:47:45.550Z,22.04
2017-06-29T07:48:26.177Z,22.02
2017-06-29T07:49:06.893Z,22.06
2017-06-29T07:49:48.504Z,22.02
2017-06-29T07:50:30.191Z,22.02
2017-06-29T07:51:12.249Z,21.99
2017-06-29T07:51:53.897Z,22
2017-06-29T07:52:34.556Z,21.99
2017-06-29T07:53:15.170Z,22
2017-06-29T07:53:55.836Z,21.96
2017-06-29T07:54:36.461Z,21.98
2017-06-29T07:55:17.075Z,21.95
2017-06-29T07:55:57.776Z,21.93
2017-06-29T07:56:38.429Z,21.92
2017-06-29T07:57:19.071Z,21.95
2017-06-29T07:57:59.785Z,21.92
2017-06-29T07:58:40.432Z,21.96
2017-06-29T07:59:21.031Z,21.91
2017-06-29T08:00:01.631Z,21.95
2017-06-29T08:00:42.222Z,21.95
2017-06-29T08:01:22.799Z,21.93
2017-06-29T08:02:03.382Z,21.95
2017-06-29T08:02:44.006Z,21.95
2017-06-29T08:03:24.579Z,21.91
2017-06-29T08:04:05.157Z,22.07
2017-06-29T08:04:45.738Z,21.98
2017-06-29T08:05:26.325Z,21.96
2017-06-29T08:06:06.895Z,21.96
2017-06-29T08:06:47.481Z,21.92
2017-06-29T08:07:28.054Z,21.96
2017-06-29T08:08:08.625Z,21.91
2017-06-29T08:08:49.208Z,21.93
2017-06-29T08:09:29.772Z,21.96
2017-06-29T08:10:10.370Z,21.92
2017-06-29T08:10:51.145Z,21.96
2017-06-29T08:11:31.773Z,21.93
2017-06-29T08:12:12.365Z,21.92
2017-06-29T08:12:52.975Z,21.89
2017-06-29T08:13:33.539Z,21.92
2017-06-29T08:14:14.150Z,21.96
2017-06-29T08:14:55.138Z,21.96
2017-06-29T08:15:35.725Z,21.89
2017-06-29T08:16:16.346Z,21.79
2017-06-29T08:16:56.910Z,21.88
2017-06-29T08:17:37.483Z,21.8
2017-06-29T08:18:18.069Z,21.8
2017-06-29T08:18:58.654Z,21.88
2017-06-29T08:19:39.235Z,21.79
2017-06-29T08:20:19.847Z,21.72
2017-06-29T08:21:00.423Z,21.77
2017-06-29T08:21:41.027Z,21.72
2017-06-29T08:22:21.617Z,21.75
2017-06-29T08:23:02.198Z,21.69
2017-06-29T08:23:42.784Z,21.76
2017-06-29T08:24:23.464Z,21.8
2017-06-29T08:25:04.046Z,21.77
2017-06-29T08:25:44.600Z,21.7
2017-06-29T08:26:25.164Z,21.7
2017-06-29T08:27:05.736Z,21.7
2017-06-29T08:27:46.332Z,21.72
2017-06-29T08:28:26.910Z,21.61
2017-06-29T08:29:07.504Z,21.73
2017-06-29T08:29:48.087Z,21.72
2017-06-29T08:30:28.672Z,21.62
2017-06-29T08:31:09.256Z,21.73
2017-06-29T08:31:49.831Z,21.61
2017-06-29T08:32:30.487Z,21.66
2017-06-29T08:33:11.044Z,21.67
2017-06-29T08:33:51.636Z,21.67
2017-06-29T08:34:32.211Z,21.7
2017-06-29T08:35:12.798Z,21.72
2017-06-29T08:35:53.363Z,21.7
2017-06-29T08:36:33.953Z,21.64
2017-06-29T08:37:14.530Z,21.66
2017-06-29T08:37:55.099Z,21.52
2017-06-29T08:38:35.673Z,21.51
2017-06-29T08:39:16.271Z,21.64
2017-06-29T08:39:56.904Z,21.55
2017-06-29T08:40:37.497Z,21.5
2017-06-29T08:41:18.068Z,21.5
2017-06-29T08:41:58.677Z,21.51
2017-06-29T08:42:39.268Z,21.46
2017-06-29T08:43:19.860Z,21.55
2017-06-29T08:44:00.421Z,21.52
2017-06-29T08:44:41.001Z,21.54
2017-06-29T08:45:21.585Z,21.5